Morning View, Kentucky
Current Conditions -  °F | °C
As of 9:53 AM on Monday 24 Nov 2014 (Local Time) from KLUK Reporting Station
Overcast Overcast  
Wind Chill: 63°   Ceiling: 6000
Heat Index: 63°   Visibility: 10mi
Dew Point: 49°   Wind: 31mph
Humidity: 60%   Direction: 210°SSW
Pressure: 29.36"   Gusts: 44mph
Location:  38.83°N, 84.46°W
Report Text: KLUK 241453Z 21027G38KT 10SM SCT048 BKN060 OVC085 17/09 A2936 RMK AO2 PK WND 22042/1430 SLP938 60000 T01720094 53013
Loading
Personal Weather Stations






























Interactive Weather Map New forecast layout! Learn more

10-Day Weather Forecast

Advertisements
Track Severe Weather on mobile